Date,TemperatureHighF,TemperatureAvgF,TemperatureLowF,DewpointHighF,DewpointAvgF,DewpointLowF,HumidityHigh,HumidityAvg,HumidityLow,PressureMaxIn,PressureMinIn,WindSpeedMaxMPH,WindSpeedAvgMPH,GustSpeedMaxMPH,PrecipitationSumIn
2013-2-1,34.7,27.9,21.3,29.0,11.2,1.0,92,52,33,30.37,29.81,23,7,31,0.00
2013-2-2,31.9,25.9,18.3,26.0,11.3,3.0,88,56,35,30.37,30.01,13,3,17,0.00
2013-2-3,33.7,29.5,25.1,28.0,24.8,21.0,92,83,61,29.99,29.84,12,2,20,0.01
2013-2-4,36.3,31.4,24.4,28.0,15.7,9.0,74,53,41,30.11,29.89,18,4,24,0.01
2013-2-5,37.2,34.5,31.5,29.0,27.7,24.0,86,76,67,29.93,29.85,7,2,9,0.00
2013-2-6,43.9,36.8,28.7,30.0,26.3,22.0,88,68,44,30.36,29.93,14,4,23,0.00
2013-2-7,38.8,33.3,26.3,32.0,25.4,21.0,84,73,61,30.45,30.20,11,4,17,0.00
2013-2-8,41.3,38.1,34.0,39.0,33.4,22.0,93,84,55,30.19,29.70,22,8,36,0.20
2013-2-9,38.9,34.1,30.3,23.0,16.6,14.0,62,49,38,30.38,29.87,25,11,35,0.20
2013-2-10,38.2,32.4,22.9,33.0,18.9,5.0,84,59,29,30.49,30.26,15,5,17,0.00
2013-2-11,56.0,45.0,37.9,51.0,39.5,-99.9,97,88,73,30.25,29.69,13,3,17,0.23
2013-2-12,53.1,47.2,39.8,44.0,29.2,23.0,75,51,32,29.98,29.80,14,5,19,0.00
2013-2-13,43.9,38.6,34.1,36.0,30.4,27.0,93,73,61,29.96,29.65,11,5,15,0.22
2013-2-14,43.1,38.6,34.4,34.0,30.8,25.0,92,75,51,30.02,29.76,10,4,15,0.23
2013-2-15,51.0,43.1,36.9,37.0,34.1,31.0,88,71,56,30.03,29.89,16,5,24,0.06
2013-2-16,37.0,36.1,34.1,35.0,30.4,18.0,93,81,52,30.02,29.80,15,5,18,0.09
2013-2-17,34.1,29.6,25.8,18.0,10.9,5.0,61,47,34,30.18,29.80,23,10,39,0.09
2013-2-18,38.6,30.6,22.1,31.0,12.5,4.0,81,49,25,30.37,30.17,12,4,24,0.00
2013-2-19,46.1,41.8,37.3,42.0,32.2,22.0,89,70,48,30.17,29.72,11,4,17,0.08
2013-2-20,40.2,33.8,26.9,22.0,13.5,7.0,49,43,35,30.14,29.84,22,10,28,0.08
2013-2-21,37.9,31.0,25.4,16.0,12.6,9.0,54,47,37,30.32,30.11,19,8,26,0.00
2013-2-22,33.7,32.1,30.4,31.0,22.6,16.0,92,69,52,30.39,30.21,14,4,16,0.07
2013-2-23,44.5,39.2,33.2,44.0,38.1,31.0,98,95,92,30.21,29.79,9,4,13,0.03
2013-2-24,49.8,42.6,34.3,42.0,30.8,19.0,95,67,34,30.09,29.78,22,9,30,0.01
2013-2-25,42.5,35.7,30.4,29.0,23.1,19.0,84,61,48,30.21,30.09,12,4,15,0.01
2013-2-26,45.8,38.0,29.5,44.0,34.0,26.0,94,85,71,30.22,29.59,29,9,38,0.52
2013-2-27,55.3,47.6,41.6,46.0,39.5,32.0,96,76,51,29.69,29.48,15,4,24,0.54
2013-2-28,47.6,43.6,40.5,37.0,29.4,20.0,83,59,34,29.72,29.62,19,6,20,0.03